Jerrys Plains, New South Wales

9:34 PM AEST on July 26, 2016 (GMT +1000)
Upper Hunter Valley | | Change Station

Elev 636 ft 32.39 °S, 150.74 °E | Updated 17 seconds ago

Overcast
Overcast
54.1 °F
Feels Like 54.1 °F
N
7.4
Wind Variable Wind from NNW
Gusts 9.8 mph

Today
High -- | Low -- °F
--% Chance of Precip.
Yesterday
High -- | Low -- °F
Precip. -- in
Pressure 30.01 in
Visibility 6.2 miles
Clouds Overcast 6100 ft
Dew Point 6 °F
Humidity 14%
Rainfall 0.00 in
Snow Depth Not available.
6:50 AM 5:15 PM
Waning Gibbous, 55% visible
METAR YWLM 261100Z AUTO 35006KT 9999 // OVC061 14/05 Q1016
Pressure 30.01 in
Visibility 6.2 miles
Clouds Overcast 6100 ft
Dew Point 6 °F
Humidity 14%
Rainfall 0.00 in
Snow Depth Not available.
6:50 AM 5:15 PM
Waning Gibbous, 55% visible
METAR YWLM 261100Z AUTO 35006KT 9999 // OVC061 14/05 Q1016

10-Day Weather Forecast

Almanac

Astronomy

Jul. 26, 2016 Rise Set
Actual Time
Civil Twilight
Nautical Twilight
Astronomical Twilight
Moon
Length of Visible Light
Length of Day
Tomorrow will be .
, % of the Moon is Illuminated

Today's Extremes

Country Highs Country Lows

Community

WunderPhotos

Upload Photos

1,927,575 photos uploaded!

WunderBlog® & News

Nearby

Air Quality

  Air Quality AQ Index Pollutant
Not available.

Snow Depth

Station Depth Elevation

Earthquake Activity

City Distance Mag. Time & Date
Minimum magnitude displayed is 2.5.

Coastal Water Temperatures

Place Temperature

Stations

Nearby Weather Stations

Station Location Temp. Windchill Dew Point Humidity Wind Precip. Elev Updated Type